Mae d'Agua, Brazil
Current Conditions -  °F | °C
As of 12:00 PM on Friday 24 Oct 2014 (Local Time) from SBKG Reporting Station
Broken Clouds Broken Clouds  
Wind Chill: 84°   Ceiling: 4100
Heat Index: 86°   Visibility: 6mi
Dew Point: 64°   Wind: 13mph
Humidity: 51%   Direction: 120°ESE
Pressure: 29.97"   Gusts: NA
Location:  7.26°S, 37.43°W
Report Text: SBKG 241500Z 12011KT 9999 BKN041 29/18 Q1015
Loading
Personal Weather Stations






























Interactive Weather Map
Tropical Storm Tracking
New forecast layout! Learn more

10-Day Weather Forecast

Advertisements
Track Severe Weather on mobile